Time;durP1;ratioP1;P1;durP2;ratioP2;P2;SDS_P1;SDS_P2;PMS_P1;PMS_P2;Temp;Humidity;BMP_temperature;BMP_pressure;BME280_temperature;BME280_humidity;BME280_pressure;Samples;Min_cycle;Max_cycle;Signal;HPM_P1;HPM_P2
2021/07/03 00:00:46;;;;;;;7.73;6.90;;;;;;;13.86;66.19;95783.47;5009710;28;20179;-76
2021/07/03 00:03:11;;;;;;;7.97;6.47;;;;;;;13.95;66.39;95779.06;5001145;28;20207;-76
2021/07/03 00:05:36;;;;;;;7.50;6.70;;;;;;;13.88;66.53;95781.53;4993275;28;20180;-76
2021/07/03 00:08:02;;;;;;;7.70;6.90;;;;;;;13.88;66.49;95781.53;4975602;28;20207;-77
2021/07/03 00:10:27;;;;;;;8.43;7.53;;;;;;;13.91;66.45;95780.41;4991211;28;20187;-76
2021/07/03 00:12:52;;;;;;;7.30;6.60;;;;;;;13.95;66.12;95787.72;5002706;28;20556;-76
2021/07/03 00:15:22;;;;;;;6.73;6.13;;;;;;;14.03;65.58;95782.50;5002424;28;20684;-77
2021/07/03 00:17:50;;;;;;;8.63;6.90;;;;;;;14.06;65.46;95789.22;4991681;28;20207;-77
2021/07/03 00:20:15;;;;;;;9.10;6.90;;;;;;;14.06;65.71;95794.44;4975885;28;20554;-76
2021/07/03 00:22:42;;;;;;;7.83;6.03;;;;;;;13.98;65.73;95789.22;4993844;28;20180;-77
2021/07/03 00:25:07;;;;;;;7.67;6.83;;;;;;;13.98;65.74;95794.44;5009708;28;20191;-76
2021/07/03 00:27:32;;;;;;;9.40;7.10;;;;;;;13.89;65.99;95786.59;5011165;28;20231;-77
2021/07/03 00:29:58;;;;;;;7.57;6.43;;;;;;;13.88;66.37;95786.75;5011174;28;20521;-75
2021/07/03 00:32:23;;;;;;;7.17;6.47;;;;;;;13.84;66.54;95785.44;5011896;28;20190;-75
2021/07/03 00:34:49;;;;;;;8.43;6.60;;;;;;;13.83;65.87;95781.19;5002721;28;20294;-75
2021/07/03 00:37:15;;;;;;;7.37;6.60;;;;;;;13.79;66.60;95782.50;4994396;28;20230;-76
2021/07/03 00:39:40;;;;;;;7.70;6.70;;;;;;;13.75;66.38;95784.63;5010692;28;20722;-75
2021/07/03 00:42:06;;;;;;;7.80;6.67;;;;;;;13.73;66.73;95790.97;5010817;28;20270;-75
2021/07/03 00:44:32;;;;;;;7.33;6.63;;;;;;;13.70;66.78;95786.91;5008109;28;20193;-75
2021/07/03 00:47:01;;;;;;;7.63;6.60;;;;;;;13.73;66.55;95786.56;5008403;28;20233;-75
2021/07/03 00:49:27;;;;;;;7.57;6.53;;;;;;;13.64;66.92;95789.34;4994242;28;20221;-75
2021/07/03 00:51:52;;;;;;;7.00;6.30;;;;;;;13.62;67.18;95786.88;5011660;28;20206;-75
2021/07/03 00:54:21;;;;;;;7.83;6.97;;;;;;;13.55;67.07;95776.28;4991129;28;20211;-74
2021/07/03 00:56:47;;;;;;;6.90;6.20;;;;;;;13.51;67.31;95784.56;4993817;28;20203;-75
2021/07/03 00:59:12;;;;;;;7.97;6.70;;;;;;;13.47;67.37;95780.66;4990797;28;20183;-75
2021/07/03 01:01:38;;;;;;;8.97;6.67;;;;;;;13.45;68.13;95780.00;5005316;28;20184;-75
2021/07/03 01:04:04;;;;;;;9.17;7.20;;;;;;;13.38;68.15;95776.41;4990694;28;20192;-75
2021/07/03 01:06:29;;;;;;;8.83;6.43;;;;;;;13.33;68.34;95767.25;4998381;28;20573;-75
2021/07/03 01:08:55;;;;;;;8.17;6.83;;;;;;;13.37;68.06;95772.16;5011346;28;20214;-76
2021/07/03 01:11:27;;;;;;;7.83;7.03;;;;;;;13.36;68.25;95773.94;5010491;28;20222;-75
2021/07/03 01:13:53;;;;;;;7.43;6.67;;;;;;;13.29;68.30;95773.75;5010086;28;20176;-75
2021/07/03 01:16:19;;;;;;;9.13;6.87;;;;;;;13.27;68.36;95772.28;5008048;28;20230;-75
2021/07/03 01:18:44;;;;;;;10.17;7.00;;;;;;;13.28;68.40;95763.50;5010588;28;20183;-76
2021/07/03 01:21:09;;;;;;;7.77;6.97;;;;;;;13.30;68.13;95764.97;5010397;28;20179;-75
2021/07/03 01:23:35;;;;;;;7.00;6.40;;;;;;;13.26;68.20;95758.44;5010144;28;20183;-75
2021/07/03 01:26:00;;;;;;;9.60;7.40;;;;;;;13.26;68.03;95763.66;4993113;28;20609;-74
2021/07/03 01:28:26;;;;;;;9.93;7.30;;;;;;;13.26;68.18;95757.63;5005527;28;20269;-75
2021/07/03 01:30:52;;;;;;;7.53;6.73;;;;;;;13.25;67.78;95769.00;5010236;28;20183;-75
2021/07/03 01:33:19;;;;;;;7.57;6.80;;;;;;;13.30;67.68;95772.78;4993369;28;20199;-75
2021/07/03 01:35:44;;;;;;;8.73;7.00;;;;;;;13.27;67.97;95772.28;5010121;28;20611;-75
2021/07/03 01:38:09;;;;;;;7.83;6.37;;;;;;;13.27;67.81;95775.72;5002922;28;20211;-75
2021/07/03 01:40:35;;;;;;;7.47;6.77;;;;;;;13.20;67.91;95777.31;5006965;28;20184;-76
2021/07/03 01:43:00;;;;;;;8.87;7.53;;;;;;;13.21;67.93;95778.13;4991726;28;20176;-75
2021/07/03 01:45:25;;;;;;;7.83;6.40;;;;;;;13.11;68.27;95777.41;4974162;28;20238;-75
2021/07/03 01:47:50;;;;;;;9.10;6.60;;;;;;;13.12;68.18;95776.44;4991284;28;20208;-76
2021/07/03 01:50:16;;;;;;;7.60;6.47;;;;;;;13.12;68.85;95774.66;5009925;28;20175;-75
2021/07/03 01:52:42;;;;;;;8.90;6.80;;;;;;;13.14;68.49;95777.09;5011255;28;20186;-75
2021/07/03 01:55:11;;;;;;;7.27;6.57;;;;;;;13.06;69.09;95777.88;4993451;28;20226;-76
2021/07/03 01:57:37;;;;;;;8.80;6.60;;;;;;;13.10;68.57;95776.59;4993579;28;20207;-75
2021/07/03 02:00:10;;;;;;;9.33;6.73;;;;;;;13.04;69.02;95772.81;5003206;28;20196;-76
2021/07/03 02:02:35;;;;;;;8.90;6.97;;;;;;;13.03;69.10;95776.41;5006577;28;20561;-76
2021/07/03 02:05:01;;;;;;;9.67;7.27;;;;;;;13.02;69.07;95772.16;4990171;28;20234;-76
2021/07/03 02:07:26;;;;;;;7.27;6.57;;;;;;;13.00;69.09;95766.31;4974021;28;20211;-76
2021/07/03 02:09:51;;;;;;;7.90;7.03;;;;;;;13.07;68.79;95766.47;4994112;28;20203;-76
2021/07/03 02:12:17;;;;;;;8.07;7.03;;;;;;;13.03;68.68;95754.75;5014248;28;20194;-76
2021/07/03 02:14:42;;;;;;;8.37;7.00;;;;;;;12.99;69.26;95761.25;5014126;28;20572;-76
2021/07/03 02:17:07;;;;;;;7.33;6.43;;;;;;;13.05;68.85;95763.22;4996830;28;20209;-76
2021/07/03 02:19:32;;;;;;;7.13;6.20;;;;;;;12.98;69.27;95759.59;5012474;28;20536;-75
2021/07/03 02:21:58;;;;;;;8.77;6.87;;;;;;;12.94;69.17;95753.06;5011270;28;20228;-76
2021/07/03 02:24:23;;;;;;;7.40;6.70;;;;;;;12.97;69.19;95758.78;4996451;28;20210;-77
2021/07/03 02:26:48;;;;;;;7.00;6.30;;;;;;;12.96;69.09;95753.72;5014320;28;20337;-76
2021/07/03 02:29:14;;;;;;;7.67;6.50;;;;;;;12.89;69.63;95750.09;4996572;28;20222;-76
2021/07/03 02:31:39;;;;;;;6.90;6.17;;;;;;;12.86;69.43;95743.44;4993323;28;20662;-76
2021/07/03 02:34:04;;;;;;;8.30;7.03;;;;;;;12.88;69.36;95743.25;5012478;28;20206;-76
2021/07/03 02:36:30;;;;;;;7.83;7.03;;;;;;;12.84;69.32;95739.34;5014161;28;20203;-76
2021/07/03 02:38:55;;;;;;;7.27;6.50;;;;;;;12.83;69.52;95742.94;5012915;28;20214;-75
2021/07/03 02:41:20;;;;;;;7.40;6.60;;;;;;;12.95;68.87;95746.88;5008214;28;20184;-75
2021/07/03 02:43:46;;;;;;;6.97;6.27;;;;;;;12.90;69.26;95749.97;5008810;28;20183;-75
2021/07/03 02:46:12;;;;;;;7.30;6.60;;;;;;;12.95;69.06;95749.50;4993238;28;20215;-75
2021/07/03 02:48:37;;;;;;;7.60;6.87;;;;;;;12.94;69.05;95748.69;4993191;28;20226;-75
2021/07/03 02:51:02;;;;;;;7.57;6.43;;;;;;;12.89;69.14;95753.53;4993047;28;20180;-75
2021/07/03 02:53:28;;;;;;;8.63;6.50;;;;;;;12.87;69.25;95754.66;5004321;28;20215;-75
2021/07/03 02:55:53;;;;;;;8.17;7.37;;;;;;;12.82;69.56;95751.72;5011145;28;20557;-76
2021/07/03 02:58:18;;;;;;;6.80;6.20;;;;;;;12.80;69.98;95756.25;5013554;28;20203;-75
2021/07/03 03:00:43;;;;;;;8.30;6.47;;;;;;;12.81;69.66;95755.28;5013584;28;20183;-76
2021/07/03 03:03:09;;;;;;;8.37;6.57;;;;;;;12.73;69.89;95754.31;5008274;28;20194;-75
2021/07/03 03:05:34;;;;;;;9.70;7.10;;;;;;;12.71;70.06;95737.97;5012054;28;20190;-75
2021/07/03 03:07:59;;;;;;;9.87;6.50;;;;;;;12.69;70.12;95737.31;5012296;28;20211;-75
2021/07/03 03:10:25;;;;;;;8.00;6.73;;;;;;;12.69;69.96;95742.53;5011796;28;20180;-75
2021/07/03 03:12:50;;;;;;;7.83;7.03;;;;;;;12.70;70.21;95741.56;5010473;28;20211;-75
2021/07/03 03:15:16;;;;;;;10.63;7.17;;;;;;;12.85;69.67;95738.38;4991981;28;20211;-76
2021/07/03 03:17:42;;;;;;;8.30;7.37;;;;;;;12.87;69.53;95739.03;4992699;28;20222;-75
2021/07/03 03:20:09;;;;;;;7.73;6.93;;;;;;;12.96;69.47;95738.09;4992291;28;20173;-76
2021/07/03 03:22:34;;;;;;;7.83;6.93;;;;;;;12.95;69.40;95736.47;4992762;28;20176;-75
2021/07/03 03:25:00;;;;;;;7.73;6.67;;;;;;;12.97;69.18;95744.94;5003973;28;20238;-75
2021/07/03 03:27:25;;;;;;;8.33;6.60;;;;;;;12.95;69.48;95737.28;4995605;28;20206;-75
2021/07/03 03:29:51;;;;;;;8.63;6.80;;;;;;;13.04;69.10;95738.13;5011852;28;20187;-76
2021/07/03 03:32:16;;;;;;;8.10;7.30;;;;;;;13.04;68.86;95727.69;5011770;28;20678;-76
2021/07/03 03:34:41;;;;;;;7.87;7.03;;;;;;;13.14;68.64;95730.97;5007069;28;20245;-75
2021/07/03 03:37:07;;;;;;;7.07;6.40;;;;;;;13.13;68.69;95729.34;5012167;28;20666;-75
2021/07/03 03:39:32;;;;;;;7.50;6.70;;;;;;;13.12;68.85;95727.72;5011667;28;20179;-76
2021/07/03 03:41:57;;;;;;;8.13;6.60;;;;;;;13.18;68.62;95731.50;5012948;28;20244;-76
2021/07/03 03:44:23;;;;;;;7.83;6.70;;;;;;;13.26;68.02;95729.75;5012707;28;20631;-76
2021/07/03 03:46:52;;;;;;;9.20;6.37;;;;;;;13.32;67.99;95729.09;5004048;28;20280;-76
2021/07/03 03:49:21;;;;;;;7.63;6.93;;;;;;;13.35;68.02;95727.16;5011571;28;20548;-76
2021/07/03 03:51:49;;;;;;;8.83;6.33;;;;;;;13.43;67.89;95730.59;5011482;28;20639;-76
2021/07/03 03:54:18;;;;;;;8.20;6.43;;;;;;;13.65;67.09;95729.16;5012328;28;20658;-76
2021/07/03 03:56:43;;;;;;;7.67;6.63;;;;;;;14.28;65.37;95735.50;5009630;28;20234;-76
2021/07/03 03:59:12;;;;;;;7.33;6.57;;;;;;;15.13;62.46;95731.34;5011227;28;20639;-76
2021/07/03 04:01:37;;;;;;;7.00;5.97;;;;;;;15.60;59.99;95730.41;5012630;28;20182;-76
2021/07/03 04:04:03;;;;;;;7.93;6.90;;;;;;;15.32;60.87;95735.31;5011110;28;20183;-76
2021/07/03 04:06:29;;;;;;;7.33;6.00;;;;;;;15.20;61.78;95736.72;5008032;28;20202;-76
2021/07/03 04:08:54;;;;;;;7.20;6.40;;;;;;;14.94;62.05;95737.81;5008687;28;20190;-76
2021/07/03 04:11:19;;;;;;;7.40;6.37;;;;;;;14.94;62.37;95743.03;4994442;28;20191;-76
2021/07/03 04:13:45;;;;;;;10.25;7.03;;;;;;;15.69;60.64;95742.47;5010999;28;20211;-77
2021/07/03 04:16:10;;;;;;;6.95;6.25;;;;;;;17.33;56.08;95739.88;5012182;28;20207;-76
2021/07/03 04:18:35;;;;;;;6.32;5.72;;;;;;;18.63;51.02;95739.63;5003957;28;20183;-77
2021/07/03 04:21:00;;;;;;;6.22;5.38;;;;;;;18.92;49.70;95742.09;4994519;28;20186;-76
2021/07/03 04:23:26;;;;;;;6.00;5.40;;;;;;;19.71;48.08;95738.97;5010810;28;20650;-76
2021/07/03 04:25:51;;;;;;;6.38;5.32;;;;;;;20.28;46.42;95747.31;5012271;28;20213;-77
2021/07/03 04:28:16;;;;;;;6.00;5.40;;;;;;;20.57;45.88;95746.13;5009065;28;20198;-77
2021/07/03 04:30:42;;;;;;;6.90;5.97;;;;;;;20.11;46.51;95743.47;4994485;28;20181;-77
2021/07/03 04:33:08;;;;;;;5.88;5.28;;;;;;;20.82;44.97;95738.38;5009849;28;20298;-77
2021/07/03 04:35:33;;;;;;;6.55;5.82;;;;;;;21.62;43.81;95742.38;5010645;28;20273;-77
2021/07/03 04:37:58;;;;;;;6.00;5.40;;;;;;;21.29;44.15;95742.53;5012335;28;20289;-76
2021/07/03 04:40:24;;;;;;;6.22;5.63;;;;;;;21.73;42.36;95743.50;5006769;28;20187;-77
2021/07/03 04:42:49;;;;;;;6.30;5.80;;;;;;;22.53;40.79;95741.16;5010803;28;20190;-77
2021/07/03 04:45:14;;;;;;;6.78;5.65;;;;;;;23.09;39.63;95742.88;5011917;28;20170;-77
2021/07/03 04:47:39;;;;;;;5.90;5.40;;;;;;;24.54;37.06;95746.19;5011995;28;20195;-77
2021/07/03 04:50:06;;;;;;;5.82;5.10;;;;;;;25.13;36.46;95749.66;5004375;28;20273;-77
2021/07/03 04:52:32;;;;;;;5.82;5.32;;;;;;;25.58;34.91;95756.94;5007540;28;20576;-76
2021/07/03 04:54:58;;;;;;;6.03;5.15;;;;;;;24.78;36.19;95752.31;4991045;28;20230;-77
2021/07/03 04:57:24;;;;;;;5.57;5.07;;;;;;;25.19;34.82;95755.91;4975268;28;20212;-77
2021/07/03 04:59:49;;;;;;;5.65;5.15;;;;;;;24.19;37.43;95753.25;4992488;28;20168;-77
2021/07/03 05:02:14;;;;;;;6.78;4.85;;;;;;;25.64;34.73;95749.88;5018924;28;20709;-77
2021/07/03 05:04:42;;;;;;;6.55;5.82;;;;;;;25.48;34.34;95740.00;4994247;28;20186;-77
2021/07/03 05:07:07;;;;;;;5.68;5.10;;;;;;;24.42;37.18;95737.41;5010793;28;20191;-77
2021/07/03 05:09:33;;;;;;;5.53;5.00;;;;;;;24.98;35.42;95732.53;4994523;28;20647;-76
2021/07/03 05:11:59;;;;;;;5.80;5.20;;;;;;;23.61;38.09;95730.84;5005163;28;20674;-77
2021/07/03 05:14:24;;;;;;;5.53;5.03;;;;;;;23.55;39.05;95737.00;4994169;28;20209;-77
2021/07/03 05:16:50;;;;;;;6.18;5.57;;;;;;;23.89;37.89;95732.91;4993937;28;20675;-77
2021/07/03 05:19:15;;;;;;;6.05;5.50;;;;;;;24.53;37.26;95738.44;4994165;28;20190;-76
2021/07/03 05:21:41;;;;;;;5.15;4.65;;;;;;;25.80;34.95;95743.03;5009065;28;20306;-76
2021/07/03 05:24:07;;;;;;;5.55;5.00;;;;;;;25.66;34.10;95739.81;4994031;28;20175;-77
2021/07/03 05:26:33;;;;;;;5.72;5.00;;;;;;;26.35;33.26;95737.06;5010729;28;20294;-77
2021/07/03 05:28:58;;;;;;;6.63;4.70;;;;;;;26.35;33.62;95734.38;4994742;28;20229;-77
2021/07/03 05:31:23;;;;;;;5.50;5.00;;;;;;;26.38;33.43;95740.06;5010132;28;20210;-77
2021/07/03 05:33:49;;;;;;;4.97;4.57;;;;;;;26.75;33.44;95740.34;5009755;28;20187;-77
2021/07/03 05:36:14;;;;;;;6.25;5.25;;;;;;;26.55;32.43;95737.38;5010852;28;20254;-77
2021/07/03 05:38:41;;;;;;;5.88;4.72;;;;;;;26.50;32.79;95734.63;5010680;28;20222;-77
2021/07/03 05:41:07;;;;;;;5.70;4.90;;;;;;;26.59;33.13;95746.50;4994726;28;20182;-77
2021/07/03 05:43:32;;;;;;;5.75;5.25;;;;;;;26.59;33.31;95741.16;5005916;28;20618;-77
2021/07/03 05:45:58;;;;;;;5.65;5.03;;;;;;;27.03;32.21;95752.78;5022312;28;20171;-76
2021/07/03 05:48:23;;;;;;;6.53;4.55;;;;;;;27.54;31.74;95747.28;4998057;28;20590;-77
2021/07/03 05:50:50;;;;;;;5.43;4.93;;;;;;;27.94;30.94;95750.41;5014439;28;20635;-77
2021/07/03 05:53:15;;;;;;;5.18;4.70;;;;;;;27.79;30.38;95752.94;5010079;28;20268;-77
2021/07/03 05:55:40;;;;;;;5.07;4.63;;;;;;;27.96;30.38;95747.50;5011237;28;20294;-76
2021/07/03 05:58:06;;;;;;;5.50;5.00;;;;;;;28.42;29.26;95737.25;5015409;28;20198;-77
2021/07/03 06:00:31;;;;;;;6.18;4.95;;;;;;;29.08;28.99;95739.59;5015483;28;20190;-77
2021/07/03 06:02:56;;;;;;;5.40;4.90;;;;;;;29.15;28.93;95740.16;5014242;28;20211;-76
2021/07/03 06:05:22;;;;;;;5.82;5.28;;;;;;;28.94;28.59;95741.91;5011241;28;20183;-76
2021/07/03 06:07:47;;;;;;;4.72;4.32;;;;;;;30.66;26.06;95747.00;4997143;28;20206;-76
2021/07/03 06:10:13;;;;;;;4.60;4.20;;;;;;;28.68;28.75;95735.56;4997136;28;20194;-76
2021/07/03 06:12:39;;;;;;;5.20;4.80;;;;;;;28.99;28.13;95732.06;5014605;28;20179;-76
2021/07/03 06:15:05;;;;;;;4.95;4.45;;;;;;;29.71;26.58;95737.75;5007398;28;20200;-77
2021/07/03 06:17:31;;;;;;;5.22;4.80;;;;;;;29.47;27.41;95730.13;5013015;28;20206;-76
2021/07/03 06:19:56;;;;;;;5.10;4.60;;;;;;;29.22;27.41;95727.34;5012832;28;20190;-76
2021/07/03 06:22:21;;;;;;;5.90;4.53;;;;;;;28.92;27.53;95733.34;5014404;28;20211;-76
2021/07/03 06:24:48;;;;;;;4.95;4.55;;;;;;;28.77;27.18;95724.16;5011718;28;20171;-75
2021/07/03 06:27:13;;;;;;;8.10;4.72;;;;;;;29.32;26.53;95730.06;5014012;28;20205;-76
2021/07/03 06:29:38;;;;;;;4.93;4.53;;;;;;;28.90;28.19;95733.63;4992937;28;20172;-75
2021/07/03 06:32:05;;;;;;;5.53;5.03;;;;;;;28.83;28.06;95734.88;4979038;28;20192;-76
2021/07/03 06:34:30;;;;;;;4.93;4.38;;;;;;;29.46;27.34;95735.75;4993038;28;20200;-76
2021/07/03 06:36:56;;;;;;;5.22;4.72;;;;;;;28.02;28.13;95732.34;5005379;28;20310;-76
2021/07/03 06:39:21;;;;;;;5.55;5.13;;;;;;;27.54;29.99;95742.75;5009324;28;20188;-76
2021/07/03 06:41:46;;;;;;;5.22;4.82;;;;;;;27.60;29.58;95746.28;4995022;28;20188;-76
2021/07/03 06:44:12;;;;;;;5.38;4.80;;;;;;;27.35;30.40;95742.25;5009185;28;20183;-76
2021/07/03 06:46:37;;;;;;;5.22;4.75;;;;;;;28.28;28.92;95720.84;4988519;28;20204;-75
2021/07/03 06:49:03;;;;;;;5.40;4.90;;;;;;;27.88;29.84;95727.41;5011653;28;20194;-75
2021/07/03 06:51:28;;;;;;;5.10;4.70;;;;;;;28.20;29.70;95724.78;5012672;28;20175;-75
2021/07/03 06:53:54;;;;;;;5.50;5.00;;;;;;;27.57;30.07;95725.47;5013548;28;20191;-77
2021/07/03 06:56:20;;;;;;;5.45;4.95;;;;;;;28.09;29.25;95731.06;5011695;28;20733;-76
2021/07/03 06:58:45;;;;;;;5.57;4.43;;;;;;;27.73;29.17;95735.25;5009900;28;20548;-77
2021/07/03 07:01:10;;;;;;;4.72;4.32;;;;;;;27.33;30.02;95738.22;5028551;28;20742;-76
2021/07/03 07:03:35;;;;;;;5.60;4.82;;;;;;;26.92;31.07;95736.84;4995733;28;20187;-76
2021/07/03 07:06:01;;;;;;;6.47;5.03;;;;;;;26.24;32.37;95736.88;5013215;28;20202;-77
2021/07/03 07:08:27;;;;;;;5.78;5.28;;;;;;;26.02;32.17;95735.97;5009190;28;20187;-77
2021/07/03 07:10:52;;;;;;;6.45;4.85;;;;;;;26.68;30.51;95730.91;5012142;28;20262;-76
2021/07/03 07:13:18;;;;;;;5.97;5.25;;;;;;;26.83;30.40;95726.63;5012065;28;20659;-75
2021/07/03 07:15:43;;;;;;;5.10;4.60;;;;;;;27.11;30.22;95730.22;5011482;28;20608;-76
2021/07/03 07:18:08;;;;;;;5.53;5.03;;;;;;;26.45;30.31;95724.72;5009633;28;20195;-76
2021/07/03 07:20:34;;;;;;;5.03;4.53;;;;;;;26.39;31.73;95730.22;4995498;28;20183;-76
2021/07/03 07:22:59;;;;;;;4.97;4.47;;;;;;;25.82;32.97;95720.47;4992415;28;20187;-76
2021/07/03 07:25:24;;;;;;;5.70;5.20;;;;;;;25.93;32.14;95729.41;4995063;28;20539;-76
2021/07/03 07:27:50;;;;;;;4.70;4.30;;;;;;;26.25;31.17;95725.19;4993947;28;20200;-76
2021/07/03 07:30:18;;;;;;;5.05;4.65;;;;;;;26.27;31.74;95723.09;4988387;28;20175;-77
2021/07/03 07:32:43;;;;;;;6.22;5.28;;;;;;;27.02;30.45;95729.81;5002410;28;20249;-76
2021/07/03 07:35:09;;;;;;;4.88;4.38;;;;;;;27.10;30.82;95728.59;5008290;28;20199;-77
2021/07/03 07:37:34;;;;;;;5.43;4.95;;;;;;;26.44;31.97;95717.00;4995393;28;20200;-76
2021/07/03 07:40:00;;;;;;;5.47;4.97;;;;;;;26.75;30.49;95718.22;5008970;28;20270;-76
2021/07/03 07:42:25;;;;;;;5.85;5.28;;;;;;;27.00;30.90;95715.91;4990767;28;20196;-76
2021/07/03 07:44:50;;;;;;;5.97;5.00;;;;;;;27.26;29.57;95710.94;5004670;28;20182;-75
2021/07/03 07:47:16;;;;;;;6.25;5.20;;;;;;;26.88;30.09;95704.59;4992079;28;20217;-77
2021/07/03 07:49:41;;;;;;;5.10;4.60;;;;;;;27.08;29.72;95712.88;5012395;28;20213;-78
2021/07/03 07:52:06;;;;;;;5.43;4.93;;;;;;;26.68;31.23;95710.44;5006270;28;20256;-79
2021/07/03 07:54:32;;;;;;;5.57;5.05;;;;;;;26.27;33.07;95707.13;5013277;28;20198;-77
2021/07/03 07:56:59;;;;;;;5.18;4.78;;;;;;;26.14;33.17;95704.75;5011654;28;20210;-75
2021/07/03 07:59:25;;;;;;;5.75;5.15;;;;;;;25.84;33.51;95691.75;5011297;28;20180;-75
2021/07/03 08:01:51;;;;;;;5.43;4.93;;;;;;;25.55;33.75;95690.16;5002536;28;20187;-75
2021/07/03 08:04:16;;;;;;;5.53;5.03;;;;;;;25.27;34.07;95696.25;5010171;28;20732;-75
2021/07/03 08:06:41;;;;;;;6.72;5.10;;;;;;;25.95;34.24;95698.06;5011228;28;20207;-75
2021/07/03 08:09:07;;;;;;;5.65;5.00;;;;;;;26.39;32.81;95699.06;5011209;28;20183;-74
2021/07/03 08:11:32;;;;;;;5.65;5.15;;;;;;;24.94;34.07;95695.03;5010538;28;20180;-74
2021/07/03 08:13:57;;;;;;;6.10;5.50;;;;;;;24.24;35.92;95693.16;5008824;28;20207;-73
2021/07/03 08:16:22;;;;;;;5.22;4.68;;;;;;;25.42;33.42;95694.69;4994886;28;20237;-74
2021/07/03 08:18:48;;;;;;;6.00;5.40;;;;;;;25.19;34.52;95696.63;4994756;28;20183;-74
2021/07/03 08:21:15;;;;;;;6.97;4.93;;;;;;;25.40;34.26;95690.66;5011304;28;20577;-73
2021/07/03 08:23:40;;;;;;;5.30;4.90;;;;;;;25.34;33.04;95703.03;5004238;28;20183;-74
2021/07/03 08:26:06;;;;;;;5.35;4.05;;;;;;;25.90;32.29;95693.47;5018983;28;20175;-75
2021/07/03 08:28:31;;;;;;;6.20;5.25;;;;;;;24.93;33.35;95690.75;4994644;28;20185;-74
2021/07/03 08:30:56;;;;;;;6.03;5.47;;;;;;;24.83;34.40;95693.19;5010966;28;20572;-75
2021/07/03 08:33:22;;;;;;;6.75;5.03;;;;;;;25.19;35.18;95689.47;5006080;28;20195;-75
2021/07/03 08:35:47;;;;;;;5.68;5.18;;;;;;;24.35;35.01;95696.91;5008470;28;20202;-76
2021/07/03 08:38:16;;;;;;;5.00;4.60;;;;;;;24.56;33.62;95695.53;5010526;28;20269;-75
2021/07/03 08:40:41;;;;;;;5.05;4.65;;;;;;;23.88;35.97;95698.66;5010680;28;20171;-75
2021/07/03 08:43:07;;;;;;;5.10;4.60;;;;;;;23.70;36.36;95699.53;5010899;28;20234;-75
2021/07/03 08:45:32;;;;;;;5.57;5.07;;;;;;;23.35;36.38;95694.06;5008506;28;20728;-77
2021/07/03 08:47:57;;;;;;;4.68;4.28;;;;;;;23.89;36.49;95701.06;5012359;28;20210;-78
2021/07/03 08:50:23;;;;;;;6.63;5.22;;;;;;;23.56;35.41;95695.41;5010297;28;20266;-75
2021/07/03 08:52:48;;;;;;;5.78;5.18;;;;;;;23.92;36.76;95691.84;5010827;28;20261;-75
2021/07/03 08:55:25;;;;;;;4.60;4.20;;;;;;;24.37;35.05;95686.03;5007877;28;20717;-75
2021/07/03 08:57:58;;;;;;;5.35;4.85;;;;;;;24.32;35.70;95684.09;4994113;28;20301;-75
2021/07/03 09:00:34;;;;;;;5.20;4.70;;;;;;;25.00;34.30;95690.59;5010474;28;20175;-74
2021/07/03 09:03:08;;;;;;;5.15;4.65;;;;;;;24.88;34.41;95682.66;5011522;28;20178;-75
2021/07/03 09:05:34;;;;;;;6.10;4.60;;;;;;;24.53;35.73;95675.53;5001667;28;20179;-75
2021/07/03 09:08:02;;;;;;;4.93;4.53;;;;;;;24.91;35.05;95679.53;5005065;28;20274;-76
2021/07/03 09:10:29;;;;;;;5.40;5.00;;;;;;;24.50;34.38;95669.91;4974616;28;20175;-76
2021/07/03 09:12:55;;;;;;;5.47;4.55;;;;;;;24.72;35.50;95676.22;4991890;28;20175;-74
2021/07/03 09:15:23;;;;;;;5.90;4.60;;;;;;;23.90;35.88;95670.84;5006975;28;20230;-75
2021/07/03 09:17:48;;;;;;;5.40;4.57;;;;;;;23.84;36.03;95669.09;5005674;28;20273;-74
2021/07/03 09:20:21;;;;;;;4.45;4.05;;;;;;;24.35;34.99;95667.69;5015745;28;20261;-76
2021/07/03 09:22:46;;;;;;;4.72;4.15;;;;;;;24.38;33.24;95671.72;4992475;28;20237;-75
2021/07/03 09:25:16;;;;;;;5.75;5.10;;;;;;;23.73;38.14;95672.53;5000859;28;20848;-75
2021/07/03 09:27:41;;;;;;;4.95;4.55;;;;;;;24.47;36.76;95668.53;5008979;28;20199;-75
2021/07/03 09:30:07;;;;;;;4.88;4.38;;;;;;;24.55;36.59;95665.50;5011735;28;20183;-75
2021/07/03 09:32:32;;;;;;;5.03;4.63;;;;;;;24.26;36.86;95666.41;5007969;28;20671;-74
2021/07/03 09:34:58;;;;;;;6.30;5.05;;;;;;;24.13;37.40;95659.50;4994244;28;20686;-75
2021/07/03 09:37:23;;;;;;;5.80;5.03;;;;;;;24.72;34.24;95657.63;4996624;28;20266;-75
2021/07/03 09:39:48;;;;;;;4.97;4.45;;;;;;;24.85;36.45;95656.59;5010826;28;20174;-76
2021/07/03 09:42:14;;;;;;;5.63;5.13;;;;;;;24.72;35.43;95649.66;5013997;28;20182;-76
2021/07/03 09:44:39;;;;;;;5.07;4.57;;;;;;;24.82;35.31;95651.72;5013541;28;20175;-75
2021/07/03 09:47:05;;;;;;;6.38;5.30;;;;;;;23.78;36.33;95640.88;5014124;28;20593;-75
2021/07/03 09:49:30;;;;;;;6.60;5.43;;;;;;;24.04;36.57;95634.34;4991142;28;20272;-76
2021/07/03 09:52:00;;;;;;;5.97;5.40;;;;;;;24.28;38.44;95643.09;5011544;28;20175;-75
2021/07/03 09:54:27;;;;;;;4.82;4.43;;;;;;;24.31;35.16;95642.66;5013405;28;20194;-75
2021/07/03 09:56:59;;;;;;;5.35;4.85;;;;;;;24.30;35.79;95646.34;5013481;28;20659;-75
2021/07/03 09:59:28;;;;;;;5.10;4.60;;;;;;;24.56;37.34;95648.56;5006982;28;20183;-74
2021/07/03 10:01:54;;;;;;;5.28;4.78;;;;;;;24.44;36.73;95646.94;5000846;28;20175;-75
2021/07/03 10:04:19;;;;;;;4.43;4.03;;;;;;;24.50;36.20;95652.13;5012933;28;20182;-74
2021/07/03 10:06:51;;;;;;;5.03;4.63;;;;;;;24.80;35.98;95648.50;5012387;28;20195;-75
2021/07/03 10:09:25;;;;;;;6.13;4.85;;;;;;;24.89;36.76;95640.97;5011410;28;20210;-75
2021/07/03 10:11:52;;;;;;;6.00;4.22;;;;;;;24.97;33.91;95641.41;5009607;28;20255;-75
2021/07/03 10:14:18;;;;;;;5.90;4.80;;;;;;;25.23;33.47;95634.78;5012347;28;20174;-75
2021/07/03 10:16:43;;;;;;;4.57;4.18;;;;;;;25.01;34.26;95639.94;5012507;28;20188;-75
2021/07/03 10:19:14;;;;;;;9.60;4.47;;;;;;;25.60;33.58;95624.53;5009054;28;20524;-75
2021/07/03 10:21:40;;;;;;;4.55;4.20;;;;;;;25.12;32.84;95620.50;5028167;28;20191;-75
2021/07/03 10:24:39;;;;;;;5.13;4.63;;;;;;;24.96;36.06;95628.38;5010047;28;20172;-75
2021/07/03 10:27:14;;;;;;;4.72;4.35;;;;;;;24.90;34.89;95624.81;4975479;28;20246;-75
2021/07/03 10:29:40;;;;;;;5.13;4.20;;;;;;;25.45;36.37;95626.97;4974435;28;20256;-73
2021/07/03 10:32:05;;;;;;;4.57;4.18;;;;;;;25.04;34.71;95628.03;4990512;28;20243;-75
2021/07/03 10:34:35;;;;;;;4.60;4.20;;;;;;;25.43;34.22;95613.06;4991162;28;20208;-75
2021/07/03 10:37:04;;;;;;;6.03;4.32;;;;;;;25.45;35.11;95619.00;4991555;28;20814;-75
2021/07/03 10:39:31;;;;;;;15.68;7.10;;;;;;;25.62;35.92;95614.50;4975585;28;20266;-75
2021/07/03 10:41:56;;;;;;;12.38;6.32;;;;;;;25.56;32.81;95614.66;4957862;28;20184;-74
2021/07/03 10:44:22;;;;;;;5.00;4.60;;;;;;;25.56;33.80;95604.00;4974957;28;20188;-75
2021/07/03 10:46:48;;;;;;;4.00;3.70;;;;;;;25.43;33.76;95605.09;4975120;28;20258;-75
2021/07/03 10:49:16;;;;;;;5.85;4.97;;;;;;;24.78;36.02;95603.59;4975377;28;20226;-75
2021/07/03 10:51:43;;;;;;;6.32;5.00;;;;;;;25.24;35.85;95603.69;4974837;28;20188;-74
2021/07/03 10:54:26;;;;;;;7.15;4.88;;;;;;;25.40;35.40;95602.94;4974829;28;20283;-74
2021/07/03 10:57:01;;;;;;;5.22;4.72;;;;;;;25.68;35.00;95604.75;4957957;28;20208;-75
2021/07/03 10:59:27;;;;;;;5.32;4.35;;;;;;;25.91;35.31;95612.59;4975614;28;20182;-77
2021/07/03 11:01:53;;;;;;;5.32;4.30;;;;;;;25.83;33.52;95599.72;4964151;28;20184;-75
2021/07/03 11:04:22;;;;;;;4.45;4.05;;;;;;;26.01;34.93;95606.63;4988579;28;20191;-75
2021/07/03 11:06:50;;;;;;;6.65;4.57;;;;;;;26.11;33.24;95598.00;5011738;28;20203;-76
2021/07/03 11:09:20;;;;;;;5.05;4.65;;;;;;;25.89;34.93;95595.28;5012345;28;20171;-77
2021/07/03 11:11:45;;;;;;;4.85;4.45;;;;;;;26.29;33.73;95600.38;5008834;28;20211;-76
2021/07/03 11:14:17;;;;;;;5.72;4.93;;;;;;;24.54;36.33;95592.22;5005787;28;20187;-77
2021/07/03 11:16:48;;;;;;;4.40;4.03;;;;;;;24.73;35.12;95586.75;5012006;28;20201;-76
2021/07/03 11:19:20;;;;;;;4.68;4.28;;;;;;;24.96;33.99;95592.00;5012090;28;20225;-76
2021/07/03 11:21:45;;;;;;;4.53;4.13;;;;;;;24.75;34.16;95587.34;5012219;28;20178;-76
2021/07/03 11:24:10;;;;;;;5.07;4.68;;;;;;;24.67;34.02;95582.38;4992458;28;20554;-76
2021/07/03 11:26:36;;;;;;;6.30;4.15;;;;;;;25.29;32.48;95583.34;5012340;28;20206;-76
2021/07/03 11:29:02;;;;;;;4.72;3.85;;;;;;;25.62;31.62;95574.63;5013086;28;20179;-75